createdAt,value
2019-05-14T00:01:08.475Z,3.27
2019-05-14T00:03:41.359Z,2.70
2019-05-14T00:06:13.765Z,2.87
2019-05-14T00:08:46.016Z,3.17
2019-05-14T00:11:18.289Z,3.10
2019-05-14T00:13:52.041Z,3.47
2019-05-14T00:16:24.570Z,4.23
2019-05-14T00:18:56.903Z,2.80
2019-05-14T00:21:31.500Z,3.00
2019-05-14T00:24:03.150Z,3.60
2019-05-14T00:26:35.392Z,2.90
2019-05-14T00:29:11.162Z,2.97
2019-05-14T00:31:42.842Z,3.93
2019-05-14T00:34:16.271Z,2.90
2019-05-14T00:36:48.312Z,2.97
2019-05-14T00:39:21.351Z,3.60
2019-05-14T00:41:53.826Z,3.27
2019-05-14T00:44:26.066Z,3.20
2019-05-14T00:46:58.279Z,2.90
2019-05-14T00:49:31.698Z,3.60
2019-05-14T00:52:04.012Z,3.53
2019-05-14T00:54:36.208Z,4.17
2019-05-14T00:57:08.420Z,3.60
2019-05-14T00:59:41.769Z,3.30
2019-05-14T01:02:14.266Z,3.50
2019-05-14T01:04:46.513Z,3.40
2019-05-14T01:07:21.003Z,3.60
2019-05-14T01:09:53.696Z,4.27
2019-05-14T01:12:26.972Z,3.93
2019-05-14T01:15:09.641Z,4.00
2019-05-14T01:17:33.142Z,4.27
2019-05-14T01:20:05.393Z,3.77
2019-05-14T01:22:37.676Z,4.40
2019-05-14T01:25:11.916Z,3.40
2019-05-14T01:27:45.973Z,3.90
2019-05-14T01:30:18.200Z,3.93
2019-05-14T01:32:51.126Z,4.00
2019-05-14T01:35:25.610Z,3.83
2019-05-14T01:37:57.899Z,4.60
2019-05-14T01:40:31.510Z,4.50
2019-05-14T01:43:04.032Z,4.23
2019-05-14T01:45:36.244Z,4.70
2019-05-14T01:48:08.440Z,4.33
2019-05-14T01:50:41.409Z,3.97
2019-05-14T01:53:14.158Z,4.30
2019-05-14T01:55:46.403Z,4.37
2019-05-14T01:58:18.693Z,4.70
2019-05-14T02:00:52.394Z,4.57
2019-05-14T02:03:24.826Z,4.67
2019-05-14T02:05:58.180Z,4.53
2019-05-14T02:08:32.313Z,4.43
2019-05-14T02:11:04.363Z,4.57
2019-05-14T02:13:36.758Z,4.93
2019-05-14T02:16:12.768Z,4.60
2019-05-14T02:18:43.114Z,4.67
2019-05-14T02:21:15.314Z,5.03
2019-05-14T02:23:47.534Z,5.20
2019-05-14T02:26:21.942Z,4.63
2019-05-14T02:28:53.695Z,5.43
2019-05-14T02:31:29.024Z,4.70
2019-05-14T02:33:59.939Z,5.27
2019-05-14T02:36:32.189Z,4.87
2019-05-14T02:39:04.421Z,4.70
2019-05-14T02:41:39.121Z,4.50
2019-05-14T02:44:12.276Z,5.17
2019-05-14T02:46:46.722Z,4.90
2019-05-14T02:49:19.602Z,5.13
2019-05-14T02:51:51.960Z,5.13
2019-05-14T02:54:24.212Z,5.07
2019-05-14T02:56:59.627Z,5.50
2019-05-14T02:59:30.871Z,4.90
2019-05-14T03:02:03.211Z,5.00
2019-05-14T03:04:35.483Z,5.40
2019-05-14T03:07:11.012Z,5.10
2019-05-14T03:09:43.900Z,5.27
2019-05-14T03:12:19.213Z,5.23
2019-05-14T03:14:50.323Z,4.77
2019-05-14T03:17:24.806Z,5.27
2019-05-14T03:19:59.956Z,5.63
2019-05-14T03:22:43.202Z,5.47
2019-05-14T03:25:04.907Z,5.43
2019-05-14T03:27:40.295Z,5.10
2019-05-14T03:30:13.206Z,5.50
2019-05-14T03:32:45.039Z,5.23
2019-05-14T03:35:22.577Z,6.07
2019-05-14T03:37:51.216Z,5.30
2019-05-14T03:40:23.431Z,5.17
2019-05-14T03:42:55.811Z,5.80
2019-05-14T03:45:30.050Z,5.33
2019-05-14T03:48:02.162Z,5.43
2019-05-14T03:50:34.397Z,5.60
2019-05-14T03:53:09.826Z,5.40
2019-05-14T03:55:41.006Z,6.07
2019-05-14T03:58:13.301Z,5.70
2019-05-14T04:00:45.503Z,5.40
2019-05-14T04:03:19.819Z,5.40
2019-05-14T04:05:51.677Z,5.93
2019-05-14T04:08:23.933Z,6.53
2019-05-14T04:10:59.001Z,6.27
2019-05-14T04:13:30.519Z,5.17
2019-05-14T04:16:02.756Z,6.13
2019-05-14T04:18:35.013Z,5.33
2019-05-14T04:21:10.131Z,5.37
2019-05-14T04:23:41.167Z,5.83
2019-05-14T04:26:13.357Z,6.20
2019-05-14T04:28:45.576Z,5.60
2019-05-14T04:31:19.136Z,5.67
2019-05-14T04:33:51.664Z,5.33
2019-05-14T04:36:23.895Z,5.00
2019-05-14T04:38:56.128Z,5.33
2019-05-14T04:41:29.847Z,6.27
2019-05-14T04:44:02.420Z,6.27
2019-05-14T04:46:34.652Z,5.67
2019-05-14T04:49:09.660Z,5.53
2019-05-14T04:51:41.290Z,6.40
2019-05-14T04:54:15.474Z,6.13
2019-05-14T04:56:50.862Z,6.23
2019-05-14T04:59:23.027Z,6.03
2019-05-14T05:01:55.254Z,5.97
2019-05-14T05:04:29.820Z,6.70
2019-05-14T05:07:01.473Z,5.43
2019-05-14T05:09:33.933Z,6.17
2019-05-14T05:12:08.862Z,6.40
2019-05-14T05:14:40.171Z,5.40
2019-05-14T05:17:12.519Z,5.77
2019-05-14T05:19:45.936Z,6.30
2019-05-14T05:22:19.599Z,5.90
2019-05-14T05:24:52.085Z,5.63
2019-05-14T05:27:28.640Z,6.03
2019-05-14T05:30:00.494Z,5.27
2019-05-14T05:32:32.684Z,5.57
2019-05-14T05:35:04.918Z,6.10
2019-05-14T05:37:38.442Z,6.10
2019-05-14T05:40:10.956Z,6.33
2019-05-14T05:42:43.386Z,6.10
2019-05-14T05:45:15.719Z,6.23
2019-05-14T05:47:57.764Z,5.63
2019-05-14T05:50:22.575Z,5.90
2019-05-14T05:52:54.834Z,5.37
2019-05-14T05:55:28.768Z,6.63
2019-05-14T05:58:01.284Z,6.30
2019-05-14T06:00:33.717Z,5.97
2019-05-14T06:03:10.236Z,5.47
2019-05-14T06:05:40.034Z,5.70
2019-05-14T06:08:12.295Z,5.73
2019-05-14T06:10:44.641Z,5.90
2019-05-14T06:13:18.298Z,5.77
2019-05-14T06:15:52.244Z,6.13
2019-05-14T06:18:25.145Z,5.10
2019-05-14T06:20:58.510Z,5.10
2019-05-14T06:23:32.076Z,6.00
2019-05-14T06:26:04.320Z,5.37
2019-05-14T06:28:40.918Z,5.53
2019-05-14T06:31:11.053Z,5.33
2019-05-14T06:33:43.298Z,5.73
2019-05-14T06:36:15.550Z,5.43
2019-05-14T06:38:49.440Z,5.60
2019-05-14T06:41:24.110Z,5.23
2019-05-14T06:43:58.904Z,5.77
2019-05-14T06:46:30.308Z,5.40
2019-05-14T06:49:02.633Z,5.23
2019-05-14T06:51:39.302Z,5.67
2019-05-14T06:54:10.834Z,4.90
2019-05-14T06:56:43.360Z,5.30
2019-05-14T06:59:18.015Z,5.20
2019-05-14T07:01:49.666Z,5.30
2019-05-14T07:04:21.900Z,5.03
2019-05-14T07:06:54.290Z,5.33
2019-05-14T07:09:29.066Z,3.80
2019-05-14T07:12:01.558Z,3.97
2019-05-14T07:14:34.132Z,3.63
2019-05-14T07:17:08.853Z,3.47
2019-05-14T07:19:40.307Z,3.20
2019-05-14T07:22:12.541Z,3.63
2019-05-14T07:24:44.832Z,3.57
2019-05-14T07:27:19.280Z,3.60
2019-05-14T07:29:51.175Z,3.80
2019-05-14T07:32:23.393Z,2.53
2019-05-14T07:34:55.683Z,3.20
2019-05-14T07:37:28.562Z,3.60
2019-05-14T07:40:01.118Z,2.77
2019-05-14T07:42:33.390Z,2.70
2019-05-14T07:45:05.425Z,2.73
2019-05-14T07:47:39.062Z,2.83
2019-05-14T07:50:11.334Z,3.07
2019-05-14T07:52:45.732Z,3.00
2019-05-14T07:55:18.531Z,2.83
2019-05-14T07:57:50.930Z,3.50
2019-05-14T08:00:23.189Z,3.00
2019-05-14T08:02:55.401Z,3.43
2019-05-14T08:05:28.756Z,3.70
2019-05-14T08:08:01.162Z,3.37
2019-05-14T08:10:33.418Z,3.10
2019-05-14T08:13:05.724Z,3.10
2019-05-14T08:15:38.683Z,2.83
2019-05-14T08:18:11.080Z,2.20
2019-05-14T08:20:43.399Z,2.97
2019-05-14T08:23:15.434Z,2.43
2019-05-14T08:25:48.245Z,1.93
2019-05-14T08:28:21.304Z,2.10
2019-05-14T08:30:53.701Z,2.37
2019-05-14T08:33:25.937Z,1.83
2019-05-14T08:35:58.372Z,2.07
2019-05-14T08:38:31.863Z,2.03
2019-05-14T08:41:04.224Z,1.83
2019-05-14T08:43:39.335Z,1.90
2019-05-14T08:46:10.554Z,1.83
2019-05-14T08:48:42.893Z,2.37
2019-05-14T08:51:15.142Z,2.03
2019-05-14T08:53:50.333Z,2.10
2019-05-14T08:56:21.489Z,2.10
2019-05-14T08:58:53.736Z,2.00
2019-05-14T09:01:25.956Z,1.73
2019-05-14T09:03:59.565Z,2.07
2019-05-14T09:06:32.204Z,2.10
2019-05-14T09:09:04.524Z,2.17
2019-05-14T09:11:44.619Z,2.00
2019-05-14T09:14:11.538Z,2.30
2019-05-14T09:16:47.776Z,1.73
2019-05-14T09:19:19.301Z,2.10
2019-05-14T09:21:52.023Z,2.03
2019-05-14T09:24:24.256Z,2.20
2019-05-14T09:26:59.000Z,2.40
2019-05-14T09:29:30.844Z,2.00
2019-05-14T09:32:03.053Z,2.00
2019-05-14T09:34:35.197Z,2.23
2019-05-14T09:37:08.623Z,2.47
2019-05-14T09:39:41.210Z,2.20
2019-05-14T09:42:13.674Z,2.00
2019-05-14T09:44:45.911Z,2.63
2019-05-14T09:47:18.953Z,2.10
2019-05-14T09:49:51.488Z,2.00
2019-05-14T09:52:24.689Z,1.93
2019-05-14T09:54:58.592Z,2.30
2019-05-14T09:57:30.886Z,2.00
2019-05-14T10:00:03.178Z,2.10
2019-05-14T10:02:39.359Z,2.17
2019-05-14T10:05:10.630Z,2.10
2019-05-14T10:07:42.928Z,2.27
2019-05-14T10:10:15.267Z,2.20
2019-05-14T10:12:54.105Z,2.10
2019-05-14T10:15:21.711Z,2.00
2019-05-14T10:17:53.938Z,2.07
2019-05-14T10:20:40.445Z,2.10
2019-05-14T10:23:00.196Z,2.10
2019-05-14T10:25:32.503Z,2.23
2019-05-14T10:28:04.711Z,2.03
2019-05-14T10:30:37.149Z,2.33
2019-05-14T10:33:14.783Z,2.40
2019-05-14T10:35:43.371Z,2.13
2019-05-14T10:38:15.683Z,2.27
2019-05-14T10:40:47.852Z,2.20
2019-05-14T10:43:20.334Z,2.37
2019-05-14T10:45:52.696Z,1.80
2019-05-14T10:48:26.265Z,2.27
2019-05-14T10:51:03.268Z,2.00
2019-05-14T10:53:32.659Z,1.97
2019-05-14T10:56:05.109Z,2.60
2019-05-14T10:58:37.328Z,2.30
2019-05-14T11:01:11.415Z,2.60
2019-05-14T11:03:43.772Z,2.53
2019-05-14T11:06:18.535Z,2.40
2019-05-14T11:08:50.423Z,1.93
2019-05-14T11:11:22.657Z,2.37
2019-05-14T11:13:54.939Z,2.70
2019-05-14T11:16:28.365Z,2.10
2019-05-14T11:19:02.037Z,2.53
2019-05-14T11:21:34.300Z,2.30
2019-05-14T11:24:09.467Z,2.37
2019-05-14T11:26:41.600Z,2.40
2019-05-14T11:29:13.806Z,2.73
2019-05-14T11:31:48.374Z,2.10
2019-05-14T11:34:20.172Z,2.20
2019-05-14T11:36:52.702Z,2.50
2019-05-14T11:39:24.942Z,2.50
2019-05-14T11:41:58.999Z,2.53
2019-05-14T11:44:31.151Z,2.27
2019-05-14T11:47:03.375Z,2.97
2019-05-14T11:49:35.422Z,2.50
2019-05-14T11:52:11.389Z,2.43
2019-05-14T11:54:41.396Z,1.97
2019-05-14T11:57:13.664Z,2.50
2019-05-14T11:59:46.967Z,2.00
2019-05-14T12:02:19.818Z,2.65
2019-05-14T12:04:52.714Z,2.42
2019-05-14T12:07:27.922Z,2.67
2019-05-14T12:10:00.445Z,2.40
2019-05-14T12:12:33.515Z,1.90
2019-05-14T12:15:08.707Z,2.00
2019-05-14T12:17:40.944Z,1.92
2019-05-14T12:20:13.971Z,2.25
2019-05-14T12:22:48.724Z,2.10
2019-05-14T12:25:21.379Z,1.87
2019-05-14T12:27:54.528Z,1.77
2019-05-14T12:30:28.690Z,1.60
2019-05-14T12:33:01.936Z,1.70
2019-05-14T12:35:34.789Z,1.80
2019-05-14T12:38:09.884Z,2.00
2019-05-14T12:40:42.221Z,1.72
2019-05-14T12:43:15.112Z,2.30
2019-05-14T12:45:48.025Z,1.75
2019-05-14T12:48:20.914Z,1.92
2019-05-14T12:50:54.032Z,2.22
2019-05-14T12:53:28.775Z,8.75
2019-05-14T12:56:02.921Z,1.80
2019-05-14T12:58:44.893Z,1.87
2019-05-14T13:01:12.808Z,1.92
2019-05-14T13:03:45.490Z,1.70
2019-05-14T13:06:19.226Z,2.20
2019-05-14T13:08:52.165Z,2.27
2019-05-14T13:11:25.070Z,2.20
2019-05-14T13:13:58.727Z,2.60
2019-05-14T13:16:31.820Z,2.37
2019-05-14T13:19:04.731Z,1.87
2019-05-14T13:21:39.000Z,2.12
2019-05-14T13:24:12.130Z,1.98
2019-05-14T13:26:49.489Z,1.80
2019-05-14T13:29:21.622Z,2.12
2019-05-14T13:31:54.565Z,2.20
2019-05-14T13:34:28.928Z,2.12
2019-05-14T13:37:01.923Z,2.35
2019-05-14T13:39:35.662Z,2.87
2019-05-14T13:42:11.720Z,2.60
2019-05-14T13:44:45.239Z,2.08
2019-05-14T13:47:18.356Z,2.60
2019-05-14T13:49:51.388Z,2.22
2019-05-14T13:52:24.201Z,1.92
2019-05-14T13:54:57.021Z,2.33
2019-05-14T13:57:29.885Z,2.40
2019-05-14T14:00:03.709Z,2.67
2019-05-14T14:02:40.174Z,2.58
2019-05-14T14:05:13.027Z,2.42
2019-05-14T14:07:48.374Z,2.80
2019-05-14T14:10:20.060Z,3.10
2019-05-14T14:12:52.315Z,3.20
2019-05-14T14:15:24.696Z,3.00
2019-05-14T14:17:56.959Z,3.17
2019-05-14T14:20:29.428Z,3.00
2019-05-14T14:23:18.797Z,2.97
2019-05-14T14:25:39.524Z,3.37
2019-05-14T14:28:11.999Z,3.10
2019-05-14T14:30:44.055Z,3.23
2019-05-14T14:33:18.513Z,3.37
2019-05-14T14:35:50.393Z,2.80
2019-05-14T14:38:22.710Z,2.90
2019-05-14T14:40:54.782Z,3.20
2019-05-14T14:43:29.448Z,2.90
2019-05-14T14:46:05.936Z,2.87
2019-05-14T14:48:35.763Z,3.10
2019-05-14T14:51:08.458Z,4.07
2019-05-14T14:53:52.526Z,3.97
2019-05-14T14:56:14.826Z,3.37
2019-05-14T14:58:49.415Z,3.60
2019-05-14T15:01:21.179Z,3.40
2019-05-14T15:03:53.638Z,3.27
2019-05-14T15:06:25.876Z,3.67
2019-05-14T15:08:58.805Z,3.57
2019-05-14T15:11:31.263Z,3.93
2019-05-14T15:14:03.791Z,3.27
2019-05-14T15:16:38.795Z,3.03
2019-05-14T15:19:09.966Z,2.93
2019-05-14T15:21:42.267Z,3.57
2019-05-14T15:24:16.016Z,2.83
2019-05-14T15:26:48.347Z,3.00
2019-05-14T15:29:20.639Z,3.50
2019-05-14T15:31:52.878Z,2.97
2019-05-14T15:34:25.319Z,3.40
2019-05-14T15:36:59.890Z,3.07
2019-05-14T15:39:31.837Z,3.27
2019-05-14T15:42:05.940Z,3.17
2019-05-14T15:44:48.885Z,3.60
2019-05-14T15:47:12.244Z,3.63
2019-05-14T15:49:45.250Z,3.10
2019-05-14T15:52:19.198Z,3.73
2019-05-14T15:54:51.994Z,3.40
2019-05-14T15:57:24.370Z,3.40
2019-05-14T16:00:00.787Z,3.40
2019-05-14T16:02:30.740Z,3.20
2019-05-14T16:05:04.371Z,3.47
2019-05-14T16:07:39.055Z,3.40
2019-05-14T16:10:10.813Z,3.10
2019-05-14T16:12:43.132Z,3.73
2019-05-14T16:15:15.398Z,2.97
2019-05-14T16:18:04.433Z,3.20
2019-05-14T16:20:21.791Z,3.00
2019-05-14T16:22:54.900Z,3.87
2019-05-14T16:25:28.647Z,3.20
2019-05-14T16:28:01.063Z,3.23
2019-05-14T16:30:33.503Z,3.37
2019-05-14T16:33:05.759Z,2.60
2019-05-14T16:35:39.297Z,3.43
2019-05-14T16:38:11.718Z,3.77
2019-05-14T16:40:44.021Z,2.73
2019-05-14T16:43:16.283Z,3.50
2019-05-14T16:45:49.235Z,2.80
2019-05-14T16:48:21.755Z,3.10
2019-05-14T16:50:54.021Z,3.57
2019-05-14T16:53:26.243Z,3.00
2019-05-14T16:55:58.557Z,3.20
2019-05-14T16:58:30.751Z,2.60
2019-05-14T17:01:03.045Z,2.63
2019-05-14T17:03:39.691Z,2.67
2019-05-14T17:06:12.652Z,2.85
2019-05-14T17:08:45.464Z,2.30
2019-05-14T17:11:18.744Z,2.55
2019-05-14T17:13:51.553Z,2.90
2019-05-14T17:16:24.444Z,2.83
2019-05-14T17:18:59.099Z,2.80
2019-05-14T17:21:31.586Z,2.27
2019-05-14T17:24:04.640Z,2.72
2019-05-14T17:26:38.095Z,3.45
2019-05-14T17:29:11.421Z,2.37
2019-05-14T17:31:43.861Z,2.77
2019-05-14T17:34:18.434Z,3.20
2019-05-14T17:36:51.054Z,2.77
2019-05-14T17:39:24.393Z,3.75
2019-05-14T17:41:58.952Z,2.95
2019-05-14T17:44:32.936Z,2.50
2019-05-14T17:47:05.209Z,3.23
2019-05-14T17:49:39.182Z,2.90
2019-05-14T17:52:11.616Z,3.10
2019-05-14T17:54:43.856Z,2.70
2019-05-14T17:57:16.133Z,3.27
2019-05-14T17:59:49.616Z,2.80
2019-05-14T18:02:22.133Z,3.23
2019-05-14T18:04:56.351Z,2.60
2019-05-14T18:07:28.689Z,2.90
2019-05-14T18:10:01.035Z,3.70
2019-05-14T18:12:33.516Z,3.53
2019-05-14T18:15:05.759Z,3.40
2019-05-14T18:17:39.233Z,3.30
2019-05-14T18:20:12.002Z,4.03
2019-05-14T18:22:44.227Z,3.50
2019-05-14T18:25:18.358Z,3.50
2019-05-14T18:27:50.755Z,3.33
2019-05-14T18:30:22.978Z,3.20
2019-05-14T18:32:55.312Z,3.57
2019-05-14T18:35:29.469Z,3.63
2019-05-14T18:38:01.570Z,3.43
2019-05-14T18:40:33.867Z,3.07
2019-05-14T18:43:08.583Z,3.50
2019-05-14T18:45:40.181Z,3.33
2019-05-14T18:48:12.298Z,3.27
2019-05-14T18:50:44.561Z,3.47
2019-05-14T18:53:18.914Z,3.60
2019-05-14T18:55:50.798Z,3.37
2019-05-14T18:58:23.071Z,3.23
2019-05-14T19:00:59.291Z,3.13
2019-05-14T19:03:39.252Z,3.60
2019-05-14T19:06:10.480Z,3.67
2019-05-14T19:08:42.738Z,2.93
2019-05-14T19:11:14.983Z,3.43
2019-05-14T19:13:48.351Z,2.80
2019-05-14T19:16:20.924Z,3.50
2019-05-14T19:18:53.318Z,3.40
2019-05-14T19:21:25.579Z,3.00
2019-05-14T19:23:58.078Z,3.67
2019-05-14T19:26:34.352Z,3.47
2019-05-14T19:29:04.239Z,3.13
2019-05-14T19:31:38.485Z,3.87
2019-05-14T19:34:10.263Z,3.90
2019-05-14T19:36:42.449Z,3.60
2019-05-14T19:39:14.752Z,4.87
2019-05-14T19:41:48.413Z,3.97
2019-05-14T19:44:20.879Z,3.53
2019-05-14T19:46:53.224Z,3.87
2019-05-14T19:49:25.530Z,3.77
2019-05-14T19:51:58.821Z,3.90
2019-05-14T19:54:31.339Z,3.33
2019-05-14T19:57:03.570Z,4.10
2019-05-14T19:59:38.187Z,3.70
2019-05-14T20:02:10.020Z,3.87
2019-05-14T20:04:42.395Z,3.73
2019-05-14T20:07:14.791Z,4.00
2019-05-14T20:09:48.290Z,3.80
2019-05-14T20:12:20.765Z,4.20
2019-05-14T20:14:52.985Z,3.63
2019-05-14T20:17:25.285Z,4.27
2019-05-14T20:19:57.939Z,3.93
2019-05-14T20:22:30.467Z,4.30
2019-05-14T20:25:02.730Z,3.90
2019-05-14T20:27:38.657Z,3.87
2019-05-14T20:30:10.460Z,4.87
2019-05-14T20:32:44.404Z,3.80
2019-05-14T20:35:30.675Z,4.20
2019-05-14T20:37:51.226Z,4.40
2019-05-14T20:40:23.496Z,4.10
2019-05-14T20:42:55.733Z,3.90
2019-05-14T20:45:28.860Z,3.70
2019-05-14T20:48:01.725Z,3.87
2019-05-14T20:50:33.936Z,3.97
2019-05-14T20:53:08.399Z,4.23
2019-05-14T20:55:40.290Z,4.07
2019-05-14T20:58:12.350Z,4.37
2019-05-14T21:00:44.625Z,4.23
2019-05-14T21:03:18.730Z,4.50
2019-05-14T21:05:50.855Z,5.03
2019-05-14T21:08:23.150Z,3.90
2019-05-14T21:10:55.441Z,4.40
2019-05-14T21:13:27.896Z,4.53
2019-05-14T21:16:00.121Z,4.90
2019-05-14T21:18:35.162Z,4.67
2019-05-14T21:21:10.873Z,4.57
2019-05-14T21:23:40.578Z,4.90
2019-05-14T21:26:12.843Z,5.07
2019-05-14T21:28:48.723Z,4.80
2019-05-14T21:31:21.245Z,5.10
2019-05-14T21:33:53.628Z,5.30
2019-05-14T21:36:28.244Z,4.70
2019-05-14T21:38:59.915Z,4.77
2019-05-14T21:41:32.165Z,5.13
2019-05-14T21:44:04.443Z,5.10
2019-05-14T21:46:39.478Z,5.27
2019-05-14T21:49:11.358Z,5.53
2019-05-14T21:51:43.838Z,5.00
2019-05-14T21:54:16.177Z,4.63
2019-05-14T21:56:49.563Z,5.00
2019-05-14T21:59:21.993Z,5.20
2019-05-14T22:01:54.119Z,5.13
2019-05-14T22:04:28.859Z,5.50
2019-05-14T22:07:00.332Z,4.60
2019-05-14T22:09:32.642Z,4.47
2019-05-14T22:12:04.890Z,4.60
2019-05-14T22:14:37.972Z,4.97
2019-05-14T22:17:10.407Z,5.03
2019-05-14T22:19:42.753Z,5.13
2019-05-14T22:22:15.010Z,5.20
2019-05-14T22:24:48.932Z,5.00
2019-05-14T22:27:21.351Z,4.97
2019-05-14T22:29:53.623Z,4.87
2019-05-14T22:32:25.877Z,5.03
2019-05-14T22:34:58.629Z,5.13
2019-05-14T22:37:31.020Z,5.23
2019-05-14T22:40:03.259Z,4.90
2019-05-14T22:42:35.616Z,5.03
2019-05-14T22:45:09.358Z,5.63
2019-05-14T22:47:42.067Z,5.13
2019-05-14T22:50:14.323Z,5.07
2019-05-14T22:52:48.559Z,5.30
2019-05-14T22:55:20.548Z,4.73
2019-05-14T22:57:52.972Z,5.23
2019-05-14T23:00:25.302Z,5.23
2019-05-14T23:02:57.538Z,5.33
2019-05-14T23:05:29.820Z,4.90
2019-05-14T23:08:02.079Z,5.23
2019-05-14T23:10:34.731Z,5.00
2019-05-14T23:13:09.303Z,5.50
2019-05-14T23:15:41.159Z,5.30
2019-05-14T23:18:13.408Z,5.50
2019-05-14T23:20:45.661Z,5.10
2019-05-14T23:23:18.540Z,5.20
2019-05-14T23:25:50.903Z,4.90
2019-05-14T23:28:23.444Z,5.07
2019-05-14T23:30:55.679Z,4.50
2019-05-14T23:33:28.873Z,5.37
2019-05-14T23:36:01.298Z,5.43
2019-05-14T23:38:33.540Z,5.33
2019-05-14T23:41:08.435Z,5.57
2019-05-14T23:43:39.823Z,5.83
2019-05-14T23:46:12.448Z,4.67
2019-05-14T23:48:44.972Z,5.37
2019-05-14T23:51:18.200Z,5.13
2019-05-14T23:53:51.198Z,4.37
2019-05-14T23:56:23.452Z,5.77
2019-05-14T23:59:01.357Z,4.60
